sensor_id;sensor_type;location;lat;lon;timestamp;temperature;humidity
61253;DHT22;47127;47.516;8.596;2022-08-14T00:00:52;18.60;81.40
61253;DHT22;47127;47.516;8.596;2022-08-14T00:03:23;18.60;81.20
61253;DHT22;47127;47.516;8.596;2022-08-14T00:05:50;18.50;81.50
61253;DHT22;47127;47.516;8.596;2022-08-14T00:08:16;18.40;82.50
61253;DHT22;47127;47.516;8.596;2022-08-14T00:10:42;18.40;83.30
61253;DHT22;47127;47.516;8.596;2022-08-14T00:13:08;18.40;83.60
61253;DHT22;47127;47.516;8.596;2022-08-14T00:15:37;18.40;84.00
61253;DHT22;47127;47.516;8.596;2022-08-14T00:18:05;18.40;84.30
61253;DHT22;47127;47.516;8.596;2022-08-14T00:20:34;18.50;84.40
61253;DHT22;47127;47.516;8.596;2022-08-14T00:23:01;18.40;85.10
61253;DHT22;47127;47.516;8.596;2022-08-14T00:25:27;18.40;85.30
61253;DHT22;47127;47.516;8.596;2022-08-14T00:27:53;18.30;86.10
61253;DHT22;47127;47.516;8.596;2022-08-14T00:30:19;18.10;87.40
61253;DHT22;47127;47.516;8.596;2022-08-14T00:32:45;18.20;88.10
61253;DHT22;47127;47.516;8.596;2022-08-14T00:35:11;18.20;88.50
61253;DHT22;47127;47.516;8.596;2022-08-14T00:37:39;18.20;87.90
61253;DHT22;47127;47.516;8.596;2022-08-14T00:40:06;18.10;88.20
61253;DHT22;47127;47.516;8.596;2022-08-14T00:42:33;17.90;89.10
61253;DHT22;47127;47.516;8.596;2022-08-14T00:44:58;18.00;89.50
61253;DHT22;47127;47.516;8.596;2022-08-14T00:47:24;18.00;89.60
61253;DHT22;47127;47.516;8.596;2022-08-14T00:49:51;18.00;89.70
61253;DHT22;47127;47.516;8.596;2022-08-14T00:52:18;18.10;89.80
61253;DHT22;47127;47.516;8.596;2022-08-14T00:54:47;18.20;90.10
61253;DHT22;47127;47.516;8.596;2022-08-14T00:57:20;18.10;90.10
61253;DHT22;47127;47.516;8.596;2022-08-14T00:59:46;18.10;90.20
61253;DHT22;47127;47.516;8.596;2022-08-14T01:02:14;18.00;90.30
61253;DHT22;47127;47.516;8.596;2022-08-14T01:04:41;18.00;90.60
61253;DHT22;47127;47.516;8.596;2022-08-14T01:07:09;17.90;90.90
61253;DHT22;47127;47.516;8.596;2022-08-14T01:09:35;17.70;90.60
61253;DHT22;47127;47.516;8.596;2022-08-14T01:12:03;17.50;91.40
61253;DHT22;47127;47.516;8.596;2022-08-14T01:14:28;17.40;91.40
61253;DHT22;47127;47.516;8.596;2022-08-14T01:16:54;17.20;91.90
61253;DHT22;47127;47.516;8.596;2022-08-14T01:19:19;17.30;92.00
61253;DHT22;47127;47.516;8.596;2022-08-14T01:22:04;17.40;91.90
61253;DHT22;47127;47.516;8.596;2022-08-14T01:24:32;17.40;92.00
61253;DHT22;47127;47.516;8.596;2022-08-14T01:26:58;17.40;92.20
61253;DHT22;47127;47.516;8.596;2022-08-14T01:29:24;17.30;93.10
61253;DHT22;47127;47.516;8.596;2022-08-14T01:31:51;17.20;93.50
61253;DHT22;47127;47.516;8.596;2022-08-14T01:34:18;17.30;93.50
61253;DHT22;47127;47.516;8.596;2022-08-14T01:36:45;17.30;93.50
61253;DHT22;47127;47.516;8.596;2022-08-14T01:39:12;17.40;93.40
61253;DHT22;47127;47.516;8.596;2022-08-14T01:41:41;17.50;93.00
61253;DHT22;47127;47.516;8.596;2022-08-14T01:44:09;17.50;93.00
61253;DHT22;47127;47.516;8.596;2022-08-14T01:46:38;17.60;93.10
61253;DHT22;47127;47.516;8.596;2022-08-14T01:49:07;17.60;93.10
61253;DHT22;47127;47.516;8.596;2022-08-14T01:51:33;17.50;93.20
61253;DHT22;47127;47.516;8.596;2022-08-14T01:54:03;17.40;93.30
61253;DHT22;47127;47.516;8.596;2022-08-14T01:56:31;17.30;93.80
61253;DHT22;47127;47.516;8.596;2022-08-14T01:59:27;17.20;94.10
61253;DHT22;47127;47.516;8.596;2022-08-14T02:01:58;17.10;94.00
61253;DHT22;47127;47.516;8.596;2022-08-14T02:04:29;17.00;94.00
61253;DHT22;47127;47.516;8.596;2022-08-14T02:06:55;16.90;93.50
61253;DHT22;47127;47.516;8.596;2022-08-14T02:09:22;16.70;93.40
61253;DHT22;47127;47.516;8.596;2022-08-14T02:11:51;16.60;94.10
61253;DHT22;47127;47.516;8.596;2022-08-14T02:14:17;16.60;94.70
61253;DHT22;47127;47.516;8.596;2022-08-14T02:16:47;16.70;94.60
61253;DHT22;47127;47.516;8.596;2022-08-14T02:19:22;16.60;94.70
61253;DHT22;47127;47.516;8.596;2022-08-14T02:21:51;16.50;94.90
61253;DHT22;47127;47.516;8.596;2022-08-14T02:24:21;16.50;95.10
61253;DHT22;47127;47.516;8.596;2022-08-14T02:26:48;16.50;94.60
61253;DHT22;47127;47.516;8.596;2022-08-14T02:29:17;16.40;94.50
61253;DHT22;47127;47.516;8.596;2022-08-14T02:31:46;16.60;95.00
61253;DHT22;47127;47.516;8.596;2022-08-14T02:34:23;16.70;95.00
61253;DHT22;47127;47.516;8.596;2022-08-14T02:36:55;16.80;95.00
61253;DHT22;47127;47.516;8.596;2022-08-14T02:39:23;16.80;95.10
61253;DHT22;47127;47.516;8.596;2022-08-14T02:41:48;16.80;95.40
61253;DHT22;47127;47.516;8.596;2022-08-14T02:44:16;16.90;95.20
61253;DHT22;47127;47.516;8.596;2022-08-14T02:46:45;16.90;95.20
61253;DHT22;47127;47.516;8.596;2022-08-14T02:49:11;16.90;95.20
61253;DHT22;47127;47.516;8.596;2022-08-14T02:51:37;16.90;95.20
61253;DHT22;47127;47.516;8.596;2022-08-14T02:54:05;16.90;94.80
61253;DHT22;47127;47.516;8.596;2022-08-14T02:56:35;16.70;94.70
61253;DHT22;47127;47.516;8.596;2022-08-14T02:59:04;16.60;95.10
61253;DHT22;47127;47.516;8.596;2022-08-14T03:01:31;16.60;95.40
61253;DHT22;47127;47.516;8.596;2022-08-14T03:03:57;16.70;95.20
61253;DHT22;47127;47.516;8.596;2022-08-14T03:06:23;16.70;95.30
61253;DHT22;47127;47.516;8.596;2022-08-14T03:08:50;16.70;95.40
61253;DHT22;47127;47.516;8.596;2022-08-14T03:11:15;16.50;95.90
61253;DHT22;47127;47.516;8.596;2022-08-14T03:13:43;16.40;96.20
61253;DHT22;47127;47.516;8.596;2022-08-14T03:16:11;16.10;97.30
61253;DHT22;47127;47.516;8.596;2022-08-14T03:18:41;16.10;98.20
61253;DHT22;47127;47.516;8.596;2022-08-14T03:21:11;16.10;98.30
61253;DHT22;47127;47.516;8.596;2022-08-14T03:23:39;16.10;98.30
61253;DHT22;47127;47.516;8.596;2022-08-14T03:26:07;15.90;98.90
61253;DHT22;47127;47.516;8.596;2022-08-14T03:28:33;15.90;98.50
61253;DHT22;47127;47.516;8.596;2022-08-14T03:30:59;15.70;98.40
61253;DHT22;47127;47.516;8.596;2022-08-14T03:33:26;15.60;98.50
61253;DHT22;47127;47.516;8.596;2022-08-14T03:35:54;15.60;98.60
61253;DHT22;47127;47.516;8.596;2022-08-14T03:38:19;15.70;98.50
61253;DHT22;47127;47.516;8.596;2022-08-14T03:40:45;15.70;98.30
61253;DHT22;47127;47.516;8.596;2022-08-14T03:43:15;15.70;98.40
61253;DHT22;47127;47.516;8.596;2022-08-14T03:45:40;15.60;98.60
61253;DHT22;47127;47.516;8.596;2022-08-14T03:48:15;15.60;98.20
61253;DHT22;47127;47.516;8.596;2022-08-14T03:50:50;15.60;98.20
61253;DHT22;47127;47.516;8.596;2022-08-14T03:53:16;15.80;98.20
61253;DHT22;47127;47.516;8.596;2022-08-14T03:55:42;16.00;98.10
61253;DHT22;47127;47.516;8.596;2022-08-14T03:58:09;16.00;97.40
61253;DHT22;47127;47.516;8.596;2022-08-14T04:00:36;15.90;98.10
61253;DHT22;47127;47.516;8.596;2022-08-14T04:03:04;15.80;98.80
61253;DHT22;47127;47.516;8.596;2022-08-14T04:05:31;15.80;99.00
61253;DHT22;47127;47.516;8.596;2022-08-14T04:07:57;15.80;99.20
61253;DHT22;47127;47.516;8.596;2022-08-14T04:10:23;15.80;99.40
61253;DHT22;47127;47.516;8.596;2022-08-14T04:12:49;15.80;99.50
61253;DHT22;47127;47.516;8.596;2022-08-14T04:15:15;15.80;99.00
61253;DHT22;47127;47.516;8.596;2022-08-14T04:17:44;15.80;98.90
61253;DHT22;47127;47.516;8.596;2022-08-14T04:20:10;15.70;99.40
61253;DHT22;47127;47.516;8.596;2022-08-14T04:22:36;15.60;99.20
61253;DHT22;47127;47.516;8.596;2022-08-14T04:25:03;15.70;98.50
61253;DHT22;47127;47.516;8.596;2022-08-14T04:27:29;15.80;98.60
61253;DHT22;47127;47.516;8.596;2022-08-14T04:29:55;15.90;99.10
61253;DHT22;47127;47.516;8.596;2022-08-14T04:32:22;15.90;99.10
61253;DHT22;47127;47.516;8.596;2022-08-14T04:34:51;15.80;98.80
61253;DHT22;47127;47.516;8.596;2022-08-14T04:37:20;15.70;99.30
61253;DHT22;47127;47.516;8.596;2022-08-14T04:40:05;15.70;99.90
61253;DHT22;47127;47.516;8.596;2022-08-14T04:42:49;15.60;99.90
61253;DHT22;47127;47.516;8.596;2022-08-14T04:45:33;15.60;99.90
61253;DHT22;47127;47.516;8.596;2022-08-14T04:48:09;15.60;99.60
61253;DHT22;47127;47.516;8.596;2022-08-14T04:50:40;15.70;99.30
61253;DHT22;47127;47.516;8.596;2022-08-14T04:53:07;15.50;99.70
61253;DHT22;47127;47.516;8.596;2022-08-14T04:55:35;15.40;99.90
61253;DHT22;47127;47.516;8.596;2022-08-14T04:58:03;15.50;99.90
61253;DHT22;47127;47.516;8.596;2022-08-14T05:00:30;15.50;99.20
61253;DHT22;47127;47.516;8.596;2022-08-14T05:02:56;15.60;99.90
61253;DHT22;47127;47.516;8.596;2022-08-14T05:05:23;15.60;99.90
61253;DHT22;47127;47.516;8.596;2022-08-14T05:07:52;15.50;99.90
61253;DHT22;47127;47.516;8.596;2022-08-14T05:10:18;15.60;99.90
61253;DHT22;47127;47.516;8.596;2022-08-14T05:12:50;15.60;99.90
61253;DHT22;47127;47.516;8.596;2022-08-14T05:15:17;15.60;99.90
61253;DHT22;47127;47.516;8.596;2022-08-14T05:17:45;15.60;99.90
61253;DHT22;47127;47.516;8.596;2022-08-14T05:20:11;15.70;99.90
61253;DHT22;47127;47.516;8.596;2022-08-14T05:22:37;15.90;99.60
61253;DHT22;47127;47.516;8.596;2022-08-14T05:25:03;15.90;99.10
61253;DHT22;47127;47.516;8.596;2022-08-14T05:27:29;15.80;99.60
61253;DHT22;47127;47.516;8.596;2022-08-14T05:29:54;15.70;99.80
61253;DHT22;47127;47.516;8.596;2022-08-14T05:32:21;15.70;99.90
61253;DHT22;47127;47.516;8.596;2022-08-14T05:34:47;15.80;99.90
61253;DHT22;47127;47.516;8.596;2022-08-14T05:37:13;15.70;99.90
61253;DHT22;47127;47.516;8.596;2022-08-14T05:39:39;15.70;99.90
61253;DHT22;47127;47.516;8.596;2022-08-14T05:42:07;15.70;99.90
61253;DHT22;47127;47.516;8.596;2022-08-14T05:44:33;15.90;99.90
61253;DHT22;47127;47.516;8.596;2022-08-14T05:46:59;16.00;99.90
61253;DHT22;47127;47.516;8.596;2022-08-14T05:49:25;16.20;99.80
61253;DHT22;47127;47.516;8.596;2022-08-14T05:51:50;16.30;99.50
61253;DHT22;47127;47.516;8.596;2022-08-14T05:54:16;16.40;99.40
61253;DHT22;47127;47.516;8.596;2022-08-14T05:56:42;16.30;99.50
61253;DHT22;47127;47.516;8.596;2022-08-14T05:59:09;16.30;99.40
61253;DHT22;47127;47.516;8.596;2022-08-14T06:01:35;16.40;99.50
61253;DHT22;47127;47.516;8.596;2022-08-14T06:04:01;16.40;99.30
61253;DHT22;47127;47.516;8.596;2022-08-14T06:06:27;16.60;99.10
61253;DHT22;47127;47.516;8.596;2022-08-14T06:08:52;16.70;99.10
61253;DHT22;47127;47.516;8.596;2022-08-14T06:11:18;16.70;98.90
61253;DHT22;47127;47.516;8.596;2022-08-14T06:13:43;16.90;98.60
61253;DHT22;47127;47.516;8.596;2022-08-14T06:16:09;16.90;98.50
61253;DHT22;47127;47.516;8.596;2022-08-14T06:18:35;16.90;98.40
61253;DHT22;47127;47.516;8.596;2022-08-14T06:21:02;16.90;98.60
61253;DHT22;47127;47.516;8.596;2022-08-14T06:23:28;17.00;98.50
61253;DHT22;47127;47.516;8.596;2022-08-14T06:25:54;17.10;98.30
61253;DHT22;47127;47.516;8.596;2022-08-14T06:28:21;17.20;98.40
61253;DHT22;47127;47.516;8.596;2022-08-14T06:30:48;17.30;98.30
61253;DHT22;47127;47.516;8.596;2022-08-14T06:33:16;17.30;98.60
61253;DHT22;47127;47.516;8.596;2022-08-14T06:35:42;17.30;98.90
61253;DHT22;47127;47.516;8.596;2022-08-14T06:38:08;17.40;98.80
61253;DHT22;47127;47.516;8.596;2022-08-14T06:40:38;17.50;98.90
61253;DHT22;47127;47.516;8.596;2022-08-14T06:43:08;17.70;98.40
61253;DHT22;47127;47.516;8.596;2022-08-14T06:45:35;17.90;97.80
61253;DHT22;47127;47.516;8.596;2022-08-14T06:48:02;18.30;97.20
61253;DHT22;47127;47.516;8.596;2022-08-14T06:50:29;18.40;96.80
61253;DHT22;47127;47.516;8.596;2022-08-14T06:52:58;18.60;96.50
61253;DHT22;47127;47.516;8.596;2022-08-14T06:55:24;18.70;96.10
61253;DHT22;47127;47.516;8.596;2022-08-14T06:57:50;18.80;95.70
61253;DHT22;47127;47.516;8.596;2022-08-14T07:00:19;19.10;95.20
61253;DHT22;47127;47.516;8.596;2022-08-14T07:02:45;19.20;95.10
61253;DHT22;47127;47.516;8.596;2022-08-14T07:05:30;19.40;95.20
61253;DHT22;47127;47.516;8.596;2022-08-14T07:08:13;19.40;95.00
61253;DHT22;47127;47.516;8.596;2022-08-14T07:10:39;19.50;94.80
61253;DHT22;47127;47.516;8.596;2022-08-14T07:13:05;19.60;94.60
61253;DHT22;47127;47.516;8.596;2022-08-14T07:15:32;19.60;94.50
61253;DHT22;47127;47.516;8.596;2022-08-14T07:17:57;19.60;94.50
61253;DHT22;47127;47.516;8.596;2022-08-14T07:20:24;19.70;94.50
61253;DHT22;47127;47.516;8.596;2022-08-14T07:22:52;19.80;94.30
61253;DHT22;47127;47.516;8.596;2022-08-14T07:25:20;19.90;94.00
61253;DHT22;47127;47.516;8.596;2022-08-14T07:27:46;20.00;94.20
61253;DHT22;47127;47.516;8.596;2022-08-14T07:30:12;20.10;94.20
61253;DHT22;47127;47.516;8.596;2022-08-14T07:32:37;20.10;93.90
61253;DHT22;47127;47.516;8.596;2022-08-14T07:35:03;20.20;93.80
61253;DHT22;47127;47.516;8.596;2022-08-14T07:37:29;20.20;93.90
61253;DHT22;47127;47.516;8.596;2022-08-14T07:39:54;20.20;94.00
61253;DHT22;47127;47.516;8.596;2022-08-14T07:42:20;20.40;93.50
61253;DHT22;47127;47.516;8.596;2022-08-14T07:44:46;20.50;93.30
61253;DHT22;47127;47.516;8.596;2022-08-14T07:47:12;20.60;93.30
61253;DHT22;47127;47.516;8.596;2022-08-14T07:49:38;20.60;93.50
61253;DHT22;47127;47.516;8.596;2022-08-14T07:52:06;20.80;93.00
61253;DHT22;47127;47.516;8.596;2022-08-14T07:54:31;21.10;92.60
61253;DHT22;47127;47.516;8.596;2022-08-14T07:56:58;21.10;92.50
61253;DHT22;47127;47.516;8.596;2022-08-14T07:59:25;21.10;92.30
61253;DHT22;47127;47.516;8.596;2022-08-14T08:01:51;21.10;92.40
61253;DHT22;47127;47.516;8.596;2022-08-14T08:04:22;21.30;92.00
61253;DHT22;47127;47.516;8.596;2022-08-14T08:06:48;21.30;92.00
61253;DHT22;47127;47.516;8.596;2022-08-14T08:09:15;21.30;92.10
61253;DHT22;47127;47.516;8.596;2022-08-14T08:11:42;21.40;91.90
61253;DHT22;47127;47.516;8.596;2022-08-14T08:14:08;21.40;91.90
61253;DHT22;47127;47.516;8.596;2022-08-14T08:16:34;21.50;92.00
61253;DHT22;47127;47.516;8.596;2022-08-14T08:19:02;21.50;91.70
61253;DHT22;47127;47.516;8.596;2022-08-14T08:21:28;21.60;91.60
61253;DHT22;47127;47.516;8.596;2022-08-14T08:23:54;21.70;91.30
61253;DHT22;47127;47.516;8.596;2022-08-14T08:26:19;21.80;91.20
61253;DHT22;47127;47.516;8.596;2022-08-14T08:28:55;21.70;91.50
61253;DHT22;47127;47.516;8.596;2022-08-14T08:31:22;21.80;91.10
61253;DHT22;47127;47.516;8.596;2022-08-14T08:33:51;22.10;90.90
61253;DHT22;47127;47.516;8.596;2022-08-14T08:36:18;22.20;90.40
61253;DHT22;47127;47.516;8.596;2022-08-14T08:38:44;22.00;90.70
61253;DHT22;47127;47.516;8.596;2022-08-14T08:41:13;22.10;90.60
61253;DHT22;47127;47.516;8.596;2022-08-14T08:43:39;22.10;90.50
61253;DHT22;47127;47.516;8.596;2022-08-14T08:46:06;22.30;90.10
61253;DHT22;47127;47.516;8.596;2022-08-14T08:51:21;22.60;88.40
61253;DHT22;47127;47.516;8.596;2022-08-14T08:54:11;22.80;88.00
61253;DHT22;47127;47.516;8.596;2022-08-14T09:04:19;23.20;86.20
61253;DHT22;47127;47.516;8.596;2022-08-14T09:06:48;23.30;85.50
61253;DHT22;47127;47.516;8.596;2022-08-14T09:09:28;23.40;85.20
61253;DHT22;47127;47.516;8.596;2022-08-14T09:11:55;23.50;84.50
61253;DHT22;47127;47.516;8.596;2022-08-14T09:14:21;23.50;84.20
61253;DHT22;47127;47.516;8.596;2022-08-14T09:16:50;23.70;84.00
61253;DHT22;47127;47.516;8.596;2022-08-14T09:19:17;23.90;83.30
61253;DHT22;47127;47.516;8.596;2022-08-14T09:21:43;23.80;82.70
61253;DHT22;47127;47.516;8.596;2022-08-14T09:24:10;23.90;82.40
61253;DHT22;47127;47.516;8.596;2022-08-14T09:26:37;23.90;81.90
61253;DHT22;47127;47.516;8.596;2022-08-14T09:29:04;24.00;80.70
61253;DHT22;47127;47.516;8.596;2022-08-14T09:31:32;23.90;80.40
61253;DHT22;47127;47.516;8.596;2022-08-14T09:34:17;24.10;78.80
61253;DHT22;47127;47.516;8.596;2022-08-14T09:36:53;24.20;78.50
61253;DHT22;47127;47.516;8.596;2022-08-14T09:40:02;24.20;77.80
61253;DHT22;47127;47.516;8.596;2022-08-14T09:42:45;24.10;78.20
61253;DHT22;47127;47.516;8.596;2022-08-14T09:45:22;24.30;78.90
61253;DHT22;47127;47.516;8.596;2022-08-14T09:47:55;24.50;78.40
61253;DHT22;47127;47.516;8.596;2022-08-14T09:50:25;24.80;77.50
61253;DHT22;47127;47.516;8.596;2022-08-14T09:52:58;25.10;77.30
61253;DHT22;47127;47.516;8.596;2022-08-14T09:55:25;25.30;76.20
61253;DHT22;47127;47.516;8.596;2022-08-14T09:58:04;25.30;75.90
61253;DHT22;47127;47.516;8.596;2022-08-14T10:00:49;25.50;75.80
61253;DHT22;47127;47.516;8.596;2022-08-14T10:05:50;25.40;74.40
61253;DHT22;47127;47.516;8.596;2022-08-14T10:08:19;25.40;74.50
61253;DHT22;47127;47.516;8.596;2022-08-14T10:10:46;25.40;74.80
61253;DHT22;47127;47.516;8.596;2022-08-14T10:13:23;25.70;74.20
61253;DHT22;47127;47.516;8.596;2022-08-14T10:15:49;25.80;72.70
61253;DHT22;47127;47.516;8.596;2022-08-14T10:18:17;25.60;72.60
61253;DHT22;47127;47.516;8.596;2022-08-14T10:20:58;25.40;72.90
61253;DHT22;47127;47.516;8.596;2022-08-14T10:23:28;25.30;72.60
61253;DHT22;47127;47.516;8.596;2022-08-14T10:26:05;25.40;72.90
61253;DHT22;47127;47.516;8.596;2022-08-14T10:28:44;25.60;72.10
61253;DHT22;47127;47.516;8.596;2022-08-14T10:31:27;25.80;71.60
61253;DHT22;47127;47.516;8.596;2022-08-14T10:34:10;26.10;70.90
61253;DHT22;47127;47.516;8.596;2022-08-14T10:36:41;26.20;70.30
61253;DHT22;47127;47.516;8.596;2022-08-14T10:39:22;26.30;69.90
61253;DHT22;47127;47.516;8.596;2022-08-14T10:41:59;26.50;69.80
61253;DHT22;47127;47.516;8.596;2022-08-14T10:44:43;26.70;69.60
61253;DHT22;47127;47.516;8.596;2022-08-14T10:47:14;26.80;70.00
61253;DHT22;47127;47.516;8.596;2022-08-14T10:49:54;26.70;69.10
61253;DHT22;47127;47.516;8.596;2022-08-14T10:52:26;26.60;68.40
61253;DHT22;47127;47.516;8.596;2022-08-14T10:55:02;26.60;67.50
61253;DHT22;47127;47.516;8.596;2022-08-14T10:57:32;26.40;67.00
61253;DHT22;47127;47.516;8.596;2022-08-14T11:00:10;26.60;66.90
61253;DHT22;47127;47.516;8.596;2022-08-14T11:02:38;26.90;66.40
61253;DHT22;47127;47.516;8.596;2022-08-14T11:05:13;27.10;65.60
61253;DHT22;47127;47.516;8.596;2022-08-14T11:07:49;27.10;65.20
61253;DHT22;47127;47.516;8.596;2022-08-14T11:10:18;27.20;64.90
61253;DHT22;47127;47.516;8.596;2022-08-14T11:12:49;27.60;63.40
61253;DHT22;47127;47.516;8.596;2022-08-14T11:15:18;28.00;62.90
61253;DHT22;47127;47.516;8.596;2022-08-14T11:17:44;28.10;62.50
61253;DHT22;47127;47.516;8.596;2022-08-14T11:20:14;28.00;62.10
61253;DHT22;47127;47.516;8.596;2022-08-14T11:22:40;28.00;59.70
61253;DHT22;47127;47.516;8.596;2022-08-14T11:25:16;28.10;58.00
61253;DHT22;47127;47.516;8.596;2022-08-14T11:27:43;28.10;58.00
61253;DHT22;47127;47.516;8.596;2022-08-14T11:30:12;27.90;58.30
61253;DHT22;47127;47.516;8.596;2022-08-14T11:32:47;27.70;57.90
61253;DHT22;47127;47.516;8.596;2022-08-14T11:35:15;27.60;58.10
61253;DHT22;47127;47.516;8.596;2022-08-14T11:37:49;27.40;58.40
61253;DHT22;47127;47.516;8.596;2022-08-14T11:40:15;27.50;59.30
61253;DHT22;47127;47.516;8.596;2022-08-14T11:42:45;27.60;59.90
61253;DHT22;47127;47.516;8.596;2022-08-14T11:45:11;27.70;60.10
61253;DHT22;47127;47.516;8.596;2022-08-14T11:47:37;27.90;59.90
61253;DHT22;47127;47.516;8.596;2022-08-14T11:50:20;28.00;60.80
61253;DHT22;47127;47.516;8.596;2022-08-14T11:52:47;28.10;59.50
61253;DHT22;47127;47.516;8.596;2022-08-14T11:55:14;28.10;60.30
61253;DHT22;47127;47.516;8.596;2022-08-14T11:57:41;28.10;60.50
61253;DHT22;47127;47.516;8.596;2022-08-14T12:00:10;27.90;61.70
61253;DHT22;47127;47.516;8.596;2022-08-14T12:02:47;27.60;62.40
61253;DHT22;47127;47.516;8.596;2022-08-14T12:05:13;27.40;63.20
61253;DHT22;47127;47.516;8.596;2022-08-14T12:07:48;27.60;64.40
61253;DHT22;47127;47.516;8.596;2022-08-14T12:10:17;27.60;62.20
61253;DHT22;47127;47.516;8.596;2022-08-14T12:12:43;27.80;62.30
61253;DHT22;47127;47.516;8.596;2022-08-14T12:15:09;27.80;61.70
61253;DHT22;47127;47.516;8.596;2022-08-14T12:17:47;28.10;60.90
61253;DHT22;47127;47.516;8.596;2022-08-14T12:20:18;28.20;61.10
61253;DHT22;47127;47.516;8.596;2022-08-14T12:22:52;28.20;59.30
61253;DHT22;47127;47.516;8.596;2022-08-14T12:25:21;28.50;59.40
61253;DHT22;47127;47.516;8.596;2022-08-14T12:27:48;28.60;59.30
61253;DHT22;47127;47.516;8.596;2022-08-14T12:32:52;28.30;58.70
61253;DHT22;47127;47.516;8.596;2022-08-14T12:35:20;28.40;59.10
61253;DHT22;47127;47.516;8.596;2022-08-14T12:37:49;28.40;59.60
61253;DHT22;47127;47.516;8.596;2022-08-14T12:40:16;28.10;60.00
61253;DHT22;47127;47.516;8.596;2022-08-14T12:42:42;28.40;59.40
61253;DHT22;47127;47.516;8.596;2022-08-14T12:45:10;28.20;59.30
61253;DHT22;47127;47.516;8.596;2022-08-14T12:47:38;27.90;58.70
61253;DHT22;47127;47.516;8.596;2022-08-14T12:50:04;27.50;58.00
61253;DHT22;47127;47.516;8.596;2022-08-14T12:52:36;27.40;57.10
61253;DHT22;47127;47.516;8.596;2022-08-14T12:55:07;27.20;56.80
61253;DHT22;47127;47.516;8.596;2022-08-14T12:57:38;27.40;55.10
61253;DHT22;47127;47.516;8.596;2022-08-14T13:02:37;27.40;54.60
61253;DHT22;47127;47.516;8.596;2022-08-14T13:05:03;27.70;54.10
61253;DHT22;47127;47.516;8.596;2022-08-14T13:07:29;28.10;53.80
61253;DHT22;47127;47.516;8.596;2022-08-14T13:09:55;28.20;54.00
61253;DHT22;47127;47.516;8.596;2022-08-14T13:12:23;27.80;54.20
61253;DHT22;47127;47.516;8.596;2022-08-14T13:14:52;27.90;54.60
61253;DHT22;47127;47.516;8.596;2022-08-14T13:17:20;27.70;54.80
61253;DHT22;47127;47.516;8.596;2022-08-14T13:19:47;27.70;55.30
61253;DHT22;47127;47.516;8.596;2022-08-14T13:22:15;27.80;55.70
61253;DHT22;47127;47.516;8.596;2022-08-14T13:24:41;27.80;55.30
61253;DHT22;47127;47.516;8.596;2022-08-14T13:27:07;28.10;54.60
61253;DHT22;47127;47.516;8.596;2022-08-14T13:29:39;28.30;54.60
61253;DHT22;47127;47.516;8.596;2022-08-14T13:32:06;28.20;54.20
61253;DHT22;47127;47.516;8.596;2022-08-14T13:34:33;28.30;54.50
61253;DHT22;47127;47.516;8.596;2022-08-14T13:37:01;28.00;54.40
61253;DHT22;47127;47.516;8.596;2022-08-14T13:39:28;28.30;54.00
61253;DHT22;47127;47.516;8.596;2022-08-14T13:41:56;28.00;53.90
61253;DHT22;47127;47.516;8.596;2022-08-14T13:44:29;28.10;53.60
61253;DHT22;47127;47.516;8.596;2022-08-14T13:47:00;28.10;53.70
61253;DHT22;47127;47.516;8.596;2022-08-14T13:49:25;27.70;54.00
61253;DHT22;47127;47.516;8.596;2022-08-14T13:51:52;27.80;53.90
61253;DHT22;47127;47.516;8.596;2022-08-14T13:54:24;27.70;53.70
61253;DHT22;47127;47.516;8.596;2022-08-14T13:56:53;27.30;54.60
61253;DHT22;47127;47.516;8.596;2022-08-14T13:59:23;27.40;54.80
61253;DHT22;47127;47.516;8.596;2022-08-14T14:01:48;27.50;54.70
61253;DHT22;47127;47.516;8.596;2022-08-14T14:04:17;27.80;54.30
61253;DHT22;47127;47.516;8.596;2022-08-14T14:06:45;28.00;54.40
61253;DHT22;47127;47.516;8.596;2022-08-14T14:09:14;27.90;54.70
61253;DHT22;47127;47.516;8.596;2022-08-14T14:11:42;27.80;54.40
61253;DHT22;47127;47.516;8.596;2022-08-14T14:14:08;27.80;54.60
61253;DHT22;47127;47.516;8.596;2022-08-14T14:16:37;27.80;54.30
61253;DHT22;47127;47.516;8.596;2022-08-14T14:19:03;27.60;55.00
61253;DHT22;47127;47.516;8.596;2022-08-14T14:21:28;27.50;55.20
61253;DHT22;47127;47.516;8.596;2022-08-14T14:23:56;27.40;55.50
61253;DHT22;47127;47.516;8.596;2022-08-14T14:26:22;27.40;55.60
61253;DHT22;47127;47.516;8.596;2022-08-14T14:28:51;27.30;55.60
61253;DHT22;47127;47.516;8.596;2022-08-14T14:31:21;27.30;55.90
61253;DHT22;47127;47.516;8.596;2022-08-14T14:33:51;27.40;56.40
61253;DHT22;47127;47.516;8.596;2022-08-14T14:36:20;27.30;56.30
61253;DHT22;47127;47.516;8.596;2022-08-14T14:39:00;27.10;57.00
61253;DHT22;47127;47.516;8.596;2022-08-14T14:41:28;27.20;57.20
61253;DHT22;47127;47.516;8.596;2022-08-14T14:43:55;27.10;56.60
61253;DHT22;47127;47.516;8.596;2022-08-14T14:46:23;26.90;57.00
61253;DHT22;47127;47.516;8.596;2022-08-14T14:48:49;27.00;57.10
61253;DHT22;47127;47.516;8.596;2022-08-14T14:51:17;27.10;57.50
61253;DHT22;47127;47.516;8.596;2022-08-14T14:53:44;27.20;57.10
61253;DHT22;47127;47.516;8.596;2022-08-14T14:56:11;26.90;57.50
61253;DHT22;47127;47.516;8.596;2022-08-14T14:58:39;26.70;57.90
61253;DHT22;47127;47.516;8.596;2022-08-14T15:01:06;26.60;58.00
61253;DHT22;47127;47.516;8.596;2022-08-14T15:03:33;26.80;58.20
61253;DHT22;47127;47.516;8.596;2022-08-14T15:06:00;26.70;58.20
61253;DHT22;47127;47.516;8.596;2022-08-14T15:08:25;26.70;58.50
61253;DHT22;47127;47.516;8.596;2022-08-14T15:10:53;26.70;58.40
61253;DHT22;47127;47.516;8.596;2022-08-14T15:13:19;26.70;57.20
61253;DHT22;47127;47.516;8.596;2022-08-14T15:15:44;26.60;57.30
61253;DHT22;47127;47.516;8.596;2022-08-14T15:18:10;26.50;56.90
61253;DHT22;47127;47.516;8.596;2022-08-14T15:20:36;26.50;57.30
61253;DHT22;47127;47.516;8.596;2022-08-14T15:23:02;26.50;57.10
61253;DHT22;47127;47.516;8.596;2022-08-14T15:25:28;26.60;57.10
61253;DHT22;47127;47.516;8.596;2022-08-14T15:27:57;26.70;56.60
61253;DHT22;47127;47.516;8.596;2022-08-14T15:30:23;26.60;57.20
61253;DHT22;47127;47.516;8.596;2022-08-14T15:32:48;26.70;58.00
61253;DHT22;47127;47.516;8.596;2022-08-14T15:35:14;26.60;56.90
61253;DHT22;47127;47.516;8.596;2022-08-14T15:37:39;26.70;56.70
61253;DHT22;47127;47.516;8.596;2022-08-14T15:40:06;26.60;56.90
61253;DHT22;47127;47.516;8.596;2022-08-14T15:42:32;26.70;57.10
61253;DHT22;47127;47.516;8.596;2022-08-14T15:45:03;26.50;56.70
61253;DHT22;47127;47.516;8.596;2022-08-14T15:47:30;26.40;57.20
61253;DHT22;47127;47.516;8.596;2022-08-14T15:49:58;26.30;56.70
61253;DHT22;47127;47.516;8.596;2022-08-14T15:52:24;26.10;56.90
61253;DHT22;47127;47.516;8.596;2022-08-14T15:54:49;26.00;56.70
61253;DHT22;47127;47.516;8.596;2022-08-14T15:57:15;26.00;56.60